Friday, January 18, 2019, 2:57 AM EST
Back to Local

KGFL, Floyd Bennett Memorial Airport

Location: Queensbury, NY, United States Lat: 43.333
Local Time: 2:57 AM EST ( 7:57 GMT) Lon: -73.617
Time Zone: US/Eastern Elev: 328 ft

Show me the last for .
Show Decoded

2019-01-18 01:53 METAR KGFL 180653Z AUTO 19004KT 4SM -SN BKN039 OVC049 M08/M14 A3017 RMK AO2
                 SNB40 SLP230 P0000 T10781144 =
2019-01-18 00:53 METAR KGFL 180553Z AUTO 00000KT 10SM BKN044 OVC070 M08/M15 A3018 RMK AO2 SLP233
                 T10831150 11078 21089 58024 =
2019-01-17 23:53 METAR KGFL 180453Z AUTO 00000KT 10SM BKN050 BKN090 OVC100 M08/M16 A3021 RMK AO2
                 SLP242 T10831161 410721161 =
2019-01-17 22:53 METAR KGFL 180353Z AUTO 00000KT 10SM OVC100 M08/M16 A3024 RMK AO2 SLP252
                 T10831161 =
2019-01-17 21:53 METAR KGFL 180253Z AUTO 00000KT 10SM OVC100 M08/M15 A3025 RMK AO2 SLP258
                 T10831150 57013 =
2019-01-17 20:53 METAR KGFL 180153Z AUTO 00000KT 10SM CLR M09/M14 A3027 RMK AO2 SLP264 T10891144
                 =
2019-01-17 19:53 METAR KGFL 180053Z AUTO 00000KT 10SM CLR M09/M16 A3028 RMK AO2 SLP267 T10891156
                 =
2019-01-17 18:53 METAR KGFL 172353Z AUTO 00000KT 10SM BKN120 M08/M17 A3029 RMK AO2 SLP272
                 T10781167 11072 21089 58009 =
2019-01-17 17:53 METAR KGFL 172253Z AUTO 00000KT 10SM BKN110 M08/M16 A3031 RMK AO2 SLP277
                 T10831161 =
2019-01-17 16:53 METAR KGFL 172153Z AUTO 06003KT 10SM CLR M08/M19 A3031 RMK AO2 SLP276 T10781194
                 =
2019-01-17 15:53 METAR KGFL 172053Z AUTO 06004KT 10SM FEW120 M07/M19 A3032 RMK AO2 SLP280
                 T10721194 58018 =
2019-01-17 14:53 METAR KGFL 171953Z AUTO 09004KT 10SM CLR M07/M19 A3034 RMK AO2 SLP286 T10721194
                 =
2019-01-17 13:53 METAR KGFL 171853Z AUTO 17004KT 10SM CLR M08/M19 A3035 RMK AO2 SLP292 T10781194
                 =
2019-01-17 12:53 METAR KGFL 171753Z AUTO 00000KT 10SM CLR M07/M20 A3037 RMK AO2 SLP298 T10721200
                 11072 21161 58025 =
2019-01-17 11:53 METAR KGFL 171653Z AUTO 13003KT 10SM CLR M09/M19 A3041 RMK AO2 SLP311 T10941189
                 =
2019-01-17 10:53 METAR KGFL 171553Z AUTO VRB04KT 10SM CLR M11/M19 A3044 RMK AO2 SLP320 T11061194
                 =
2019-01-17 09:53 METAR KGFL 171453Z AUTO 00000KT 10SM CLR M11/M20 A3044 RMK AO2 SLP322 T11111200
                 51017 =
2019-01-17 08:53 METAR KGFL 171353Z AUTO 00000KT 10SM CLR M13/M20 A3044 RMK AO2 SLP323 T11331200
                 =
2019-01-17 07:53 METAR KGFL 171253Z AUTO 00000KT 10SM CLR M16/M19 A3042 RMK AO2 SLP315 T11611189
                 =
2019-01-17 06:53 METAR KGFL 171153Z AUTO 02004KT 10SM CLR M14/M20 A3039 RMK AO2 SLP305 T11441200
                 11106 21161 53014 =
2019-01-17 05:53 METAR KGFL 171053Z AUTO 30003KT 10SM CLR M15/M20 A3038 RMK AO2 SLP299 T11501200
                 =
2019-01-17 04:53 METAR KGFL 170953Z AUTO 36003KT 10SM CLR M14/M19 A3037 RMK AO2 SLP295 T11391194
                 =
2019-01-17 03:53 METAR KGFL 170853Z AUTO 03004KT 10SM CLR M13/M19 A3035 RMK AO2 SLP290 T11281194
                 51022 =

Support USWX by starting your Amazon purchase here.